createdAt,value
2023-08-13T00:02:15.809Z,100.00
2023-08-13T00:05:19.505Z,100.00
2023-08-13T00:08:29.827Z,100.00
2023-08-13T00:11:34.015Z,100.00
2023-08-13T00:14:37.043Z,100.00
2023-08-13T00:17:39.903Z,100.00
2023-08-13T00:20:43.285Z,100.00
2023-08-13T00:23:50.715Z,100.00
2023-08-13T00:26:54.807Z,100.00
2023-08-13T00:29:57.615Z,100.00
2023-08-13T00:33:00.428Z,100.00
2023-08-13T00:36:03.577Z,100.00
2023-08-13T00:39:06.427Z,100.00
2023-08-13T00:42:16.945Z,100.00
2023-08-13T00:45:20.052Z,100.00
2023-08-13T00:48:23.468Z,100.00
2023-08-13T00:51:26.716Z,100.00
2023-08-13T00:54:32.430Z,100.00
2023-08-13T00:57:36.757Z,100.00
2023-08-13T01:00:40.231Z,100.00
2023-08-13T01:03:43.138Z,100.00
2023-08-13T01:06:54.158Z,100.00
2023-08-13T01:10:07.691Z,100.00
2023-08-13T01:13:22.252Z,100.00
2023-08-13T01:16:25.953Z,100.00
2023-08-13T01:19:29.073Z,100.00
2023-08-13T01:22:37.902Z,100.00
2023-08-13T01:25:44.398Z,100.00
2023-08-13T01:28:54.888Z,100.00
2023-08-13T01:32:02.906Z,100.00
2023-08-13T01:35:07.783Z,100.00
2023-08-13T01:38:13.010Z,100.00
2023-08-13T01:41:15.760Z,100.00
2023-08-13T01:44:18.604Z,100.00
2023-08-13T01:47:21.434Z,100.00
2023-08-13T01:50:24.443Z,100.00
2023-08-13T01:53:35.870Z,100.00
2023-08-13T01:56:38.848Z,100.00
2023-08-13T01:59:41.687Z,100.00
2023-08-13T02:02:44.586Z,100.00
2023-08-13T02:05:47.418Z,100.00
2023-08-13T02:08:51.538Z,100.00
2023-08-13T02:11:54.264Z,100.00
2023-08-13T02:14:57.152Z,100.00
2023-08-13T02:17:59.931Z,100.00
2023-08-13T02:21:03.468Z,100.00
2023-08-13T02:24:08.196Z,100.00
2023-08-13T02:27:11.101Z,100.00
2023-08-13T02:30:15.226Z,100.00
2023-08-13T02:33:21.035Z,100.00
2023-08-13T02:36:24.469Z,100.00
2023-08-13T02:39:28.603Z,100.00
2023-08-13T02:42:31.374Z,100.00
2023-08-13T02:45:34.151Z,100.00
2023-08-13T02:48:37.055Z,100.00
2023-08-13T02:51:40.022Z,100.00
2023-08-13T02:54:44.319Z,100.00
2023-08-13T02:58:07.442Z,100.00
2023-08-13T03:01:09.948Z,100.00
2023-08-13T03:04:13.636Z,100.00
2023-08-13T03:07:16.450Z,100.00
2023-08-13T03:10:20.689Z,100.00
2023-08-13T03:13:23.454Z,100.00
2023-08-13T03:16:26.422Z,100.00
2023-08-13T03:19:29.201Z,100.00
2023-08-13T03:22:32.204Z,100.00
2023-08-13T03:25:36.407Z,100.00
2023-08-13T03:28:39.145Z,100.00
2023-08-13T03:31:42.010Z,100.00
2023-08-13T03:34:44.732Z,100.00
2023-08-13T03:37:47.607Z,100.00
2023-08-13T03:40:55.451Z,100.00
2023-08-13T03:43:58.308Z,100.00
2023-08-13T03:47:07.325Z,100.00
2023-08-13T03:50:13.073Z,100.00
2023-08-13T03:53:15.888Z,100.00
2023-08-13T03:56:20.054Z,100.00
2023-08-13T03:59:25.936Z,100.00
2023-08-13T04:02:28.750Z,100.00
2023-08-13T04:05:31.989Z,100.00
2023-08-13T04:08:35.559Z,100.00
2023-08-13T04:11:39.756Z,100.00
2023-08-13T04:14:42.539Z,100.00
2023-08-13T04:17:45.303Z,100.00
2023-08-13T04:20:48.189Z,100.00
2023-08-13T04:23:50.928Z,100.00
2023-08-13T04:26:56.921Z,100.00
2023-08-13T04:29:59.742Z,100.00
2023-08-13T04:33:03.778Z,100.00
2023-08-13T04:36:07.149Z,100.00
2023-08-13T04:39:10.031Z,100.00
2023-08-13T04:42:14.353Z,100.00
2023-08-13T04:45:17.480Z,100.00
2023-08-13T04:48:44.870Z,100.00
2023-08-13T04:51:50.048Z,100.00
2023-08-13T04:54:52.868Z,100.00
2023-08-13T04:57:57.027Z,100.00
2023-08-13T05:00:59.814Z,100.00
2023-08-13T05:04:03.094Z,100.00
2023-08-13T05:07:06.091Z,100.00
2023-08-13T05:10:09.889Z,100.00
2023-08-13T05:13:14.954Z,100.00
2023-08-13T05:16:17.798Z,100.00
2023-08-13T05:19:28.742Z,100.00
2023-08-13T05:22:31.551Z,100.00
2023-08-13T05:25:39.222Z,100.00
2023-08-13T05:28:43.367Z,100.00
2023-08-13T05:31:47.220Z,100.00
2023-08-13T05:34:50.511Z,100.00
2023-08-13T05:37:53.349Z,100.00
2023-08-13T05:40:56.152Z,100.00
2023-08-13T05:44:00.938Z,100.00
2023-08-13T05:47:04.301Z,100.00
2023-08-13T05:50:07.677Z,100.00
2023-08-13T05:53:10.468Z,100.00
2023-08-13T05:56:13.206Z,100.00
2023-08-13T05:59:17.283Z,100.00
2023-08-13T06:02:20.036Z,100.00
2023-08-13T06:05:25.877Z,100.00
2023-08-13T06:08:28.696Z,100.00
2023-08-13T06:11:34.613Z,100.00
2023-08-13T06:14:38.908Z,100.00
2023-08-13T06:17:43.340Z,100.00
2023-08-13T06:20:47.171Z,100.00
2023-08-13T06:23:49.915Z,100.00
2023-08-13T06:26:55.846Z,100.00
2023-08-13T06:30:09.745Z,100.00
2023-08-13T06:33:14.168Z,100.00
2023-08-13T06:36:17.074Z,100.00
2023-08-13T06:39:20.394Z,100.00
2023-08-13T06:42:23.245Z,100.00
2023-08-13T06:45:28.737Z,100.00
2023-08-13T06:48:34.316Z,100.00
2023-08-13T06:51:37.199Z,100.00
2023-08-13T06:54:40.031Z,100.00
2023-08-13T06:57:42.822Z,100.00
2023-08-13T07:00:48.267Z,100.00
2023-08-13T07:03:51.079Z,100.00
2023-08-13T07:06:54.058Z,100.00
2023-08-13T07:09:56.921Z,100.00
2023-08-13T07:13:02.720Z,100.00
2023-08-13T07:16:11.338Z,100.00
2023-08-13T07:19:14.306Z,100.00
2023-08-13T07:22:17.480Z,100.00
2023-08-13T07:25:20.531Z,100.00
2023-08-13T07:28:23.353Z,100.00
2023-08-13T07:31:27.540Z,100.00
2023-08-13T07:34:30.421Z,100.00
2023-08-13T07:37:34.055Z,100.00
2023-08-13T07:40:36.837Z,100.00
2023-08-13T07:43:39.586Z,100.00
2023-08-13T07:46:43.666Z,100.00
2023-08-13T07:49:46.468Z,100.00
2023-08-13T07:52:49.293Z,100.00
2023-08-13T07:55:54.017Z,100.00
2023-08-13T07:58:56.742Z,100.00
2023-08-13T08:02:04.232Z,100.00
2023-08-13T08:05:08.314Z,100.00
2023-08-13T08:08:11.104Z,100.00
2023-08-13T08:11:13.853Z,100.00
2023-08-13T08:14:16.698Z,99.47
2023-08-13T08:17:20.776Z,98.51
2023-08-13T08:20:23.735Z,98.35
2023-08-13T08:23:26.532Z,97.11
2023-08-13T08:26:29.420Z,97.02
2023-08-13T08:29:32.311Z,96.85
2023-08-13T08:32:37.596Z,96.09
2023-08-13T08:35:40.433Z,95.03
2023-08-13T08:38:44.991Z,93.92
2023-08-13T08:41:49.257Z,94.35
2023-08-13T08:44:52.559Z,94.80
2023-08-13T08:47:56.991Z,93.44
2023-08-13T08:51:00.305Z,91.98
2023-08-13T08:54:06.184Z,92.53
2023-08-13T08:57:08.965Z,92.86
2023-08-13T09:00:12.563Z,91.20
2023-08-13T09:03:22.734Z,90.69
2023-08-13T09:06:25.607Z,89.45
2023-08-13T09:09:30.020Z,89.14
2023-08-13T09:12:37.106Z,87.81
2023-08-13T09:15:42.461Z,88.26
2023-08-13T09:18:48.484Z,88.31
2023-08-13T09:21:59.345Z,88.21
2023-08-13T09:25:03.817Z,88.87
2023-08-13T09:28:07.502Z,88.75
2023-08-13T09:31:10.376Z,85.54
2023-08-13T09:34:14.525Z,83.94
2023-08-13T09:37:18.519Z,84.66
2023-08-13T09:40:21.760Z,83.76
2023-08-13T09:43:27.962Z,83.48
2023-08-13T09:46:35.748Z,83.06
2023-08-13T09:49:42.010Z,82.80
2023-08-13T09:52:48.903Z,82.18
2023-08-13T09:55:54.061Z,81.21
2023-08-13T09:58:57.241Z,80.08
2023-08-13T10:02:00.762Z,78.61
2023-08-13T10:05:06.207Z,76.96
2023-08-13T10:08:11.073Z,77.17
2023-08-13T10:11:14.779Z,77.69
2023-08-13T10:14:19.987Z,77.68
2023-08-13T10:17:25.265Z,78.36
2023-08-13T10:20:29.831Z,78.05
2023-08-13T10:23:36.473Z,76.30
2023-08-13T10:26:43.843Z,75.60
2023-08-13T10:29:46.568Z,76.31
2023-08-13T10:32:51.279Z,72.51
2023-08-13T10:36:02.268Z,72.07
2023-08-13T10:39:36.172Z,68.99
2023-08-13T10:42:55.455Z,68.09
2023-08-13T10:45:58.341Z,67.15
2023-08-13T10:49:02.214Z,68.06
2023-08-13T10:52:08.944Z,68.15
2023-08-13T10:55:11.951Z,67.38
2023-08-13T10:58:25.214Z,64.94
2023-08-13T11:01:28.004Z,64.67
2023-08-13T11:04:30.828Z,65.50
2023-08-13T11:07:38.499Z,64.83
2023-08-13T11:10:41.687Z,63.92
2023-08-13T11:13:44.493Z,64.09
2023-08-13T11:16:48.804Z,64.47
2023-08-13T11:19:51.575Z,64.79
2023-08-13T11:22:55.771Z,65.93
2023-08-13T11:36:07.752Z,61.52
2023-08-13T11:39:12.069Z,59.31
2023-08-13T11:42:15.081Z,59.91
2023-08-13T11:45:18.031Z,60.57
2023-08-13T11:48:22.535Z,58.69
2023-08-13T11:51:26.803Z,59.25
2023-08-13T11:54:31.192Z,58.89
2023-08-13T11:57:34.000Z,58.08
2023-08-13T12:00:39.987Z,59.29
2023-08-13T12:03:43.925Z,60.00
2023-08-13T12:06:48.450Z,61.25
2023-08-13T12:09:52.584Z,61.86
2023-08-13T12:12:55.431Z,62.04
2023-08-13T12:15:58.332Z,61.70
2023-08-13T12:19:04.202Z,61.46
2023-08-13T12:22:09.161Z,61.29
2023-08-13T12:25:13.321Z,61.14
2023-08-13T12:28:16.396Z,60.49
2023-08-13T12:31:20.013Z,60.08
2023-08-13T12:34:22.844Z,58.16
2023-08-13T12:37:26.933Z,57.93
2023-08-13T12:40:31.141Z,54.42
2023-08-13T12:43:33.974Z,51.39
2023-08-13T12:46:36.889Z,54.43
2023-08-13T12:49:39.725Z,52.51
2023-08-13T12:52:42.593Z,51.49
2023-08-13T12:55:46.718Z,53.59
2023-08-13T12:58:49.489Z,54.86
2023-08-13T13:01:52.266Z,54.58
2023-08-13T13:04:56.152Z,53.75
2023-08-13T13:07:59.020Z,54.22
2023-08-13T13:11:03.328Z,54.13
2023-08-13T13:14:06.135Z,52.11
2023-08-13T13:17:08.941Z,52.38
2023-08-13T13:20:12.753Z,52.69
2023-08-13T13:23:15.656Z,52.50
2023-08-13T13:26:19.977Z,53.36
2023-08-13T13:29:22.748Z,52.39
2023-08-13T13:32:25.639Z,48.23
2023-08-13T13:35:28.649Z,47.08
2023-08-13T13:38:31.489Z,49.49
2023-08-13T13:41:36.136Z,50.77
2023-08-13T13:44:38.931Z,49.95
2023-08-13T13:47:42.292Z,50.27
2023-08-13T13:50:51.043Z,48.39
2023-08-13T13:53:56.438Z,47.75
2023-08-13T13:57:00.550Z,48.61
2023-08-13T14:00:07.009Z,49.45
2023-08-13T14:03:09.973Z,49.61
2023-08-13T14:06:12.807Z,49.31
2023-08-13T14:09:17.801Z,48.65
2023-08-13T14:12:21.853Z,47.68
2023-08-13T14:15:24.625Z,47.91
2023-08-13T14:18:27.484Z,49.62
2023-08-13T14:21:30.253Z,48.48
2023-08-13T14:24:33.178Z,48.36
2023-08-13T14:27:37.262Z,47.89
2023-08-13T14:30:40.264Z,46.30
2023-08-13T14:33:43.061Z,46.81
2023-08-13T14:36:45.904Z,47.27
2023-08-13T14:39:48.712Z,47.82
2023-08-13T14:42:52.841Z,47.77
2023-08-13T14:45:55.635Z,48.20
2023-08-13T14:48:58.607Z,47.83
2023-08-13T14:52:02.058Z,46.64
2023-08-13T14:55:05.545Z,45.12
2023-08-13T14:58:09.660Z,46.30
2023-08-13T15:01:12.524Z,46.16
2023-08-13T15:04:15.605Z,46.45
2023-08-13T15:07:18.572Z,46.79
2023-08-13T15:10:21.482Z,49.70
2023-08-13T15:13:29.517Z,51.16
2023-08-13T15:16:32.299Z,51.32
2023-08-13T15:19:35.100Z,49.13
2023-08-13T15:22:37.862Z,48.62
2023-08-13T15:25:53.494Z,48.38
2023-08-13T15:28:59.772Z,50.72
2023-08-13T15:32:09.785Z,51.05
2023-08-13T15:35:15.779Z,49.97
2023-08-13T15:38:21.002Z,51.91
2023-08-13T15:41:25.934Z,52.75
2023-08-13T15:44:30.436Z,50.03
2023-08-13T15:47:33.185Z,48.80
2023-08-13T15:50:36.507Z,47.74
2023-08-13T15:53:40.385Z,48.77
2023-08-13T15:56:43.152Z,48.71
2023-08-13T15:59:47.276Z,48.91
2023-08-13T16:02:50.845Z,49.88
2023-08-13T16:05:53.698Z,50.71
2023-08-13T16:08:56.470Z,51.41
2023-08-13T16:11:59.158Z,51.56
2023-08-13T16:15:08.661Z,51.92
2023-08-13T16:18:11.689Z,52.69
2023-08-13T16:21:14.748Z,53.05
2023-08-13T16:24:17.507Z,53.79
2023-08-13T16:27:20.343Z,54.43
2023-08-13T16:30:24.858Z,55.48
2023-08-13T16:33:27.698Z,56.09
2023-08-13T16:36:30.700Z,56.12
2023-08-13T16:39:33.560Z,55.68
2023-08-13T16:42:47.554Z,55.88
2023-08-13T16:45:59.153Z,57.94
2023-08-13T16:49:01.944Z,58.73
2023-08-13T16:52:07.167Z,59.63
2023-08-13T16:55:12.679Z,59.53
2023-08-13T16:58:15.574Z,59.22
2023-08-13T17:01:22.216Z,59.30
2023-08-13T17:04:25.060Z,59.36
2023-08-13T17:07:28.148Z,60.58
2023-08-13T17:10:30.954Z,61.89
2023-08-13T17:13:33.698Z,62.88
2023-08-13T17:16:38.111Z,64.38
2023-08-13T17:19:41.732Z,64.62
2023-08-13T17:22:44.661Z,63.26
2023-08-13T17:25:48.838Z,63.02
2023-08-13T17:28:51.739Z,63.05
2023-08-13T17:31:56.012Z,62.84
2023-08-13T17:34:58.801Z,63.29
2023-08-13T17:38:01.604Z,64.37
2023-08-13T17:41:07.240Z,63.92
2023-08-13T17:44:10.065Z,63.63
2023-08-13T17:47:14.310Z,63.74
2023-08-13T17:50:17.335Z,64.31
2023-08-13T17:53:20.182Z,64.51
2023-08-13T17:56:22.979Z,64.86
2023-08-13T17:59:26.811Z,65.33
2023-08-13T18:02:32.211Z,65.42
2023-08-13T18:05:35.076Z,66.82
2023-08-13T18:08:37.782Z,67.71
2023-08-13T18:11:43.700Z,68.61
2023-08-13T18:14:46.454Z,68.70
2023-08-13T18:17:50.666Z,69.51
2023-08-13T18:20:53.478Z,70.06
2023-08-13T18:23:56.245Z,70.43
2023-08-13T18:26:59.005Z,70.21
2023-08-13T18:30:02.253Z,70.46
2023-08-13T18:33:06.581Z,70.29
2023-08-13T18:36:09.377Z,71.28
2023-08-13T18:39:12.348Z,71.98
2023-08-13T18:42:15.758Z,72.48
2023-08-13T18:45:20.160Z,72.67
2023-08-13T18:48:24.535Z,73.14
2023-08-13T18:51:27.300Z,73.30
2023-08-13T18:54:30.057Z,74.02
2023-08-13T18:57:33.562Z,74.47
2023-08-13T19:00:36.344Z,74.63
2023-08-13T19:03:42.979Z,75.00
2023-08-13T19:06:46.057Z,75.23
2023-08-13T19:09:48.855Z,76.91
2023-08-13T19:12:51.646Z,78.29
2023-08-13T19:15:54.586Z,79.12
2023-08-13T19:18:58.882Z,79.55
2023-08-13T19:22:02.081Z,79.38
2023-08-13T19:25:05.757Z,79.23
2023-08-13T19:28:08.536Z,79.17
2023-08-13T19:31:11.353Z,80.25
2023-08-13T19:34:15.756Z,81.50
2023-08-13T19:37:18.479Z,81.95
2023-08-13T19:40:21.218Z,82.05
2023-08-13T19:43:24.231Z,81.77
2023-08-13T19:46:27.074Z,81.50
2023-08-13T19:49:31.172Z,81.21
2023-08-13T19:52:33.871Z,81.59
2023-08-13T19:55:37.227Z,81.21
2023-08-13T19:58:41.112Z,81.58
2023-08-13T20:01:43.979Z,81.42
2023-08-13T20:04:48.120Z,81.66
2023-08-13T20:07:50.972Z,82.28
2023-08-13T20:10:53.854Z,83.25
2023-08-13T20:13:56.563Z,83.89
2023-08-13T20:20:21.915Z,84.61
2023-08-13T20:23:24.935Z,84.96
2023-08-13T20:26:27.873Z,85.14
2023-08-13T20:29:32.196Z,86.23
2023-08-13T20:32:35.330Z,86.74
2023-08-13T20:35:39.390Z,87.31
2023-08-13T20:38:42.394Z,87.28
2023-08-13T20:41:47.285Z,87.28
2023-08-13T20:44:50.135Z,86.93
2023-08-13T20:47:53.068Z,87.04
2023-08-13T20:50:57.210Z,87.52
2023-08-13T20:53:59.956Z,87.64
2023-08-13T20:57:03.372Z,87.42
2023-08-13T21:00:08.249Z,87.38
2023-08-13T21:03:11.718Z,87.64
2023-08-13T21:06:15.921Z,88.04
2023-08-13T21:09:18.791Z,88.60
2023-08-13T21:12:21.571Z,88.82
2023-08-13T21:15:24.298Z,88.76
2023-08-13T21:18:27.152Z,88.69
2023-08-13T21:21:31.224Z,88.48
2023-08-13T21:24:34.013Z,88.52
2023-08-13T21:27:36.722Z,88.64
2023-08-13T21:30:42.514Z,89.27
2023-08-13T21:33:45.687Z,89.61
2023-08-13T21:36:50.856Z,89.78
2023-08-13T21:39:53.725Z,90.21
2023-08-13T21:42:56.455Z,90.34
2023-08-13T21:45:59.231Z,90.30
2023-08-13T21:49:02.019Z,90.59
2023-08-13T21:52:06.351Z,90.96
2023-08-13T21:55:12.187Z,91.09
2023-08-13T21:58:15.052Z,91.13
2023-08-13T22:01:17.862Z,90.83
2023-08-13T22:04:20.598Z,90.82
2023-08-13T22:07:24.708Z,90.75
2023-08-13T22:10:27.505Z,90.94
2023-08-13T22:13:30.257Z,91.26
2023-08-13T22:16:33.045Z,91.05
2023-08-13T22:19:50.241Z,90.94
2023-08-13T22:22:55.654Z,90.96
2023-08-13T22:26:05.269Z,90.91
2023-08-13T22:29:15.480Z,91.01
2023-08-13T22:32:18.548Z,91.25
2023-08-13T22:35:47.172Z,91.71
2023-08-13T22:38:51.279Z,92.03
2023-08-13T22:41:54.281Z,92.04
2023-08-13T22:44:57.035Z,92.12
2023-08-13T22:47:59.927Z,92.57
2023-08-13T22:51:02.875Z,92.84
2023-08-13T22:54:07.751Z,93.46
2023-08-13T22:57:11.142Z,93.49
2023-08-13T23:00:15.713Z,93.70
2023-08-13T23:03:28.401Z,93.55
2023-08-13T23:06:31.266Z,93.57
2023-08-13T23:09:35.349Z,94.09
2023-08-13T23:12:38.223Z,94.77
2023-08-13T23:15:41.046Z,94.94
2023-08-13T23:18:43.808Z,95.42
2023-08-13T23:21:46.645Z,95.49
2023-08-13T23:24:50.918Z,95.58
2023-08-13T23:27:53.646Z,95.96
2023-08-13T23:30:56.411Z,95.85
2023-08-13T23:33:59.257Z,96.23
2023-08-13T23:37:01.995Z,96.29
2023-08-13T23:40:07.486Z,96.74
2023-08-13T23:43:10.253Z,96.85
2023-08-13T23:46:13.064Z,96.29
2023-08-13T23:49:15.900Z,95.87
2023-08-13T23:52:18.925Z,95.65
2023-08-13T23:55:23.128Z,95.32
2023-08-13T23:58:25.927Z,95.20
